createdAt,value
2022-08-29T00:00:51.159Z,16.1
2022-08-29T00:02:50.258Z,16.1
2022-08-29T00:04:50.619Z,16.1
2022-08-29T00:06:49.975Z,16.1
2022-08-29T00:08:49.971Z,16.1
2022-08-29T00:10:50.785Z,16.0
2022-08-29T00:12:50.755Z,16.0
2022-08-29T00:14:50.675Z,16.0
2022-08-29T00:16:50.439Z,16.0
2022-08-29T00:18:50.552Z,16.0
2022-08-29T00:20:50.591Z,15.9
2022-08-29T00:22:50.386Z,15.8
2022-08-29T00:24:50.072Z,15.8
2022-08-29T00:26:50.259Z,15.8
2022-08-29T00:28:50.434Z,15.8
2022-08-29T00:30:50.521Z,15.8
2022-08-29T00:32:50.481Z,15.8
2022-08-29T00:34:50.035Z,15.8
2022-08-29T00:36:50.328Z,15.8
2022-08-29T00:38:50.432Z,15.8
2022-08-29T00:40:52.830Z,15.8
2022-08-29T00:42:50.790Z,15.8
2022-08-29T00:44:49.979Z,15.7
2022-08-29T00:46:50.346Z,15.7
2022-08-29T00:48:54.981Z,15.7
2022-08-29T00:50:50.262Z,15.7
2022-08-29T00:52:50.403Z,15.7
2022-08-29T00:54:50.380Z,15.7
2022-08-29T00:56:50.653Z,15.6
2022-08-29T00:58:50.675Z,15.6
2022-08-29T01:00:50.734Z,15.6
2022-08-29T01:02:50.811Z,15.6
2022-08-29T01:04:50.280Z,15.6
2022-08-29T01:06:50.668Z,15.6
2022-08-29T01:08:58.581Z,15.6
2022-08-29T01:10:50.518Z,15.6
2022-08-29T01:12:50.181Z,15.6
2022-08-29T01:14:49.994Z,15.6
2022-08-29T01:16:50.359Z,15.5
2022-08-29T01:18:50.417Z,15.6
2022-08-29T01:20:50.298Z,15.5
2022-08-29T01:22:50.742Z,15.5
2022-08-29T01:24:50.111Z,15.5
2022-08-29T01:26:50.717Z,15.5
2022-08-29T01:28:53.692Z,15.4
2022-08-29T01:30:50.599Z,15.4
2022-08-29T01:32:50.432Z,15.4
2022-08-29T01:34:49.948Z,15.4
2022-08-29T01:36:50.274Z,15.4
2022-08-29T01:38:50.214Z,15.4
2022-08-29T01:40:50.406Z,15.4
2022-08-29T01:42:50.314Z,15.3
2022-08-29T01:44:52.649Z,15.3
2022-08-29T01:46:50.813Z,15.3
2022-08-29T01:48:50.904Z,15.2
2022-08-29T01:50:53.088Z,15.2
2022-08-29T01:52:50.129Z,15.2
2022-08-29T01:54:49.980Z,15.2
2022-08-29T01:56:50.289Z,15.2
2022-08-29T01:58:50.208Z,15.2
2022-08-29T02:00:50.609Z,15.2
2022-08-29T02:02:50.493Z,15.2
2022-08-29T02:04:50.847Z,15.1
2022-08-29T02:06:49.997Z,15.1
2022-08-29T02:08:50.418Z,15.1
2022-08-29T02:10:50.226Z,15.1
2022-08-29T02:12:50.086Z,15.1
2022-08-29T02:14:50.050Z,15.1
2022-08-29T02:16:50.282Z,15.0
2022-08-29T02:18:50.181Z,15.0
2022-08-29T02:20:50.219Z,15.0
2022-08-29T02:22:50.115Z,15.0
2022-08-29T02:24:50.244Z,15.0
2022-08-29T02:26:50.577Z,15.0
2022-08-29T02:28:50.463Z,15.0
2022-08-29T02:30:57.508Z,15.0
2022-08-29T02:32:50.973Z,15.0
2022-08-29T02:34:50.482Z,14.9
2022-08-29T02:36:50.519Z,14.8
2022-08-29T02:38:50.358Z,14.8
2022-08-29T02:40:50.289Z,14.8
2022-08-29T02:42:50.436Z,14.8
2022-08-29T02:44:50.513Z,14.8
2022-08-29T02:46:51.048Z,14.7
2022-08-29T02:49:01.834Z,14.7
2022-08-29T02:50:50.046Z,14.7
2022-08-29T02:52:50.046Z,14.7
2022-08-29T02:54:50.878Z,14.6
2022-08-29T02:56:50.288Z,14.6
2022-08-29T02:58:50.078Z,14.6
2022-08-29T03:00:52.136Z,14.6
2022-08-29T03:02:50.060Z,14.5
2022-08-29T03:04:50.636Z,14.5
2022-08-29T03:06:50.865Z,14.5
2022-08-29T03:08:50.923Z,14.5
2022-08-29T03:10:50.698Z,14.4
2022-08-29T03:12:50.667Z,14.4
2022-08-29T03:14:52.619Z,14.4
2022-08-29T03:16:50.738Z,14.4
2022-08-29T03:18:50.758Z,14.4
2022-08-29T03:20:50.822Z,14.4
2022-08-29T03:22:50.637Z,14.3
2022-08-29T03:24:50.551Z,14.3
2022-08-29T03:26:59.134Z,14.3
2022-08-29T03:28:49.965Z,14.3
2022-08-29T03:30:50.869Z,14.3
2022-08-29T03:32:49.990Z,14.3
2022-08-29T03:34:50.517Z,14.3
2022-08-29T03:36:50.703Z,14.2
2022-08-29T03:38:50.646Z,14.2
2022-08-29T03:40:50.564Z,14.2
2022-08-29T03:42:50.497Z,14.2
2022-08-29T03:44:50.486Z,14.2
2022-08-29T03:46:51.158Z,14.2
2022-08-29T03:48:50.308Z,14.2
2022-08-29T03:50:56.873Z,14.2
2022-08-29T03:52:50.755Z,14.1
2022-08-29T03:54:50.691Z,14.2
2022-08-29T03:56:50.807Z,14.2
2022-08-29T03:58:53.869Z,14.1
2022-08-29T04:00:50.152Z,14.1
2022-08-29T04:02:51.173Z,14.0
2022-08-29T04:04:50.904Z,14.0
2022-08-29T04:06:50.213Z,14.0
2022-08-29T04:08:50.188Z,13.9
2022-08-29T04:10:50.042Z,13.9
2022-08-29T04:12:55.356Z,13.9
2022-08-29T04:14:50.240Z,13.9
2022-08-29T04:16:50.308Z,13.8
2022-08-29T04:18:50.207Z,13.8
2022-08-29T04:20:50.329Z,13.8
2022-08-29T04:22:50.353Z,13.8
2022-08-29T04:24:50.542Z,13.8
2022-08-29T04:26:50.806Z,13.8
2022-08-29T04:28:50.843Z,13.7
2022-08-29T04:30:53.376Z,13.6
2022-08-29T04:32:50.679Z,13.6
2022-08-29T04:34:50.017Z,13.6
2022-08-29T04:36:55.377Z,13.5
2022-08-29T04:38:50.347Z,13.5
2022-08-29T04:40:50.577Z,13.5
2022-08-29T04:42:50.413Z,13.5
2022-08-29T04:44:50.470Z,13.4
2022-08-29T04:46:50.738Z,13.4
2022-08-29T04:48:50.158Z,13.5
2022-08-29T04:50:50.208Z,13.5
2022-08-29T04:52:50.288Z,13.5
2022-08-29T04:54:50.151Z,13.5
2022-08-29T04:56:57.886Z,13.5
2022-08-29T04:58:51.153Z,13.5
2022-08-29T05:00:50.416Z,13.5
2022-08-29T05:02:50.771Z,13.6
2022-08-29T05:04:50.366Z,13.6
2022-08-29T05:06:50.818Z,13.7
2022-08-29T05:09:00.446Z,13.7
2022-08-29T05:10:50.422Z,13.7
2022-08-29T05:12:50.550Z,13.7
2022-08-29T05:14:52.308Z,13.8
2022-08-29T05:16:50.551Z,13.8
2022-08-29T05:18:50.461Z,13.8
2022-08-29T05:20:50.390Z,13.8
2022-08-29T05:22:50.273Z,13.9
2022-08-29T05:24:50.209Z,13.9
2022-08-29T05:26:50.381Z,14.0
2022-08-29T05:28:50.084Z,14.0
2022-08-29T05:30:50.347Z,14.0
2022-08-29T05:32:50.624Z,14.0
2022-08-29T05:34:50.105Z,14.1
2022-08-29T05:36:50.447Z,14.2
2022-08-29T05:38:50.260Z,14.2
2022-08-29T05:40:50.211Z,14.3
2022-08-29T05:42:50.240Z,14.3
2022-08-29T05:44:50.386Z,14.4
2022-08-29T05:46:50.587Z,14.5
2022-08-29T05:48:50.708Z,14.6
2022-08-29T05:50:50.584Z,14.7
2022-08-29T05:52:50.669Z,14.7
2022-08-29T05:54:50.542Z,14.9
2022-08-29T05:56:51.810Z,14.9
2022-08-29T05:58:50.664Z,14.9
2022-08-29T06:00:50.735Z,15.0
2022-08-29T06:02:51.893Z,15.2
2022-08-29T06:04:50.435Z,15.2
2022-08-29T06:06:50.483Z,15.4
2022-08-29T06:08:50.481Z,15.4
2022-08-29T06:10:50.421Z,15.5
2022-08-29T06:12:50.213Z,15.6
2022-08-29T06:14:51.286Z,15.7
2022-08-29T06:16:50.359Z,15.7
2022-08-29T06:18:50.446Z,15.8
2022-08-29T06:20:50.249Z,15.8
2022-08-29T06:22:50.312Z,15.9
2022-08-29T06:24:50.034Z,16.0
2022-08-29T06:26:50.203Z,16.0
2022-08-29T06:28:50.001Z,16.0
2022-08-29T06:30:52.696Z,16.0
2022-08-29T06:32:50.517Z,16.1
2022-08-29T06:34:50.119Z,16.1
2022-08-29T06:36:50.209Z,16.1
2022-08-29T06:38:50.398Z,16.1
2022-08-29T06:40:50.321Z,16.2
2022-08-29T06:42:50.406Z,16.3
2022-08-29T06:44:50.265Z,16.3
2022-08-29T06:46:50.430Z,16.4
2022-08-29T06:48:50.419Z,16.5
2022-08-29T06:50:50.278Z,16.6
2022-08-29T06:52:50.488Z,16.6
2022-08-29T06:54:53.733Z,16.6
2022-08-29T06:56:50.814Z,16.6
2022-08-29T06:58:50.930Z,16.7
2022-08-29T07:00:50.920Z,16.8
2022-08-29T07:02:53.753Z,16.9
2022-08-29T07:04:50.333Z,16.9
2022-08-29T07:06:50.568Z,16.9
2022-08-29T07:08:56.855Z,17.0
2022-08-29T07:10:50.734Z,17.0
2022-08-29T07:12:50.610Z,17.2
2022-08-29T07:14:54.582Z,17.2
2022-08-29T07:16:50.824Z,17.3
2022-08-29T07:18:50.773Z,17.3
2022-08-29T07:20:51.074Z,17.4
2022-08-29T07:22:50.945Z,17.4
2022-08-29T07:24:49.949Z,17.4
2022-08-29T07:26:50.356Z,17.4
2022-08-29T07:28:50.392Z,17.5
2022-08-29T07:30:50.247Z,17.6
2022-08-29T07:32:50.149Z,17.6
2022-08-29T07:34:56.688Z,17.6
2022-08-29T07:36:50.745Z,17.8
2022-08-29T07:38:50.734Z,17.8
2022-08-29T07:40:50.521Z,17.8
2022-08-29T07:42:50.704Z,17.8
2022-08-29T07:44:50.657Z,17.8
2022-08-29T07:46:49.969Z,17.9
2022-08-29T07:48:49.930Z,18.0
2022-08-29T07:50:50.736Z,18.0
2022-08-29T07:52:50.610Z,18.1
2022-08-29T07:54:50.486Z,18.1
2022-08-29T07:56:50.018Z,18.2
2022-08-29T07:58:50.870Z,18.3
2022-08-29T08:00:50.836Z,18.3
2022-08-29T08:02:50.352Z,18.3
2022-08-29T08:04:53.036Z,18.4
2022-08-29T08:06:50.241Z,18.5
2022-08-29T08:08:50.121Z,18.6
2022-08-29T08:10:52.754Z,18.6
2022-08-29T08:12:50.854Z,18.6
2022-08-29T08:14:50.598Z,18.7
2022-08-29T08:16:50.929Z,18.8
2022-08-29T08:18:50.896Z,18.8
2022-08-29T08:20:50.866Z,18.8
2022-08-29T08:22:50.727Z,19.0
2022-08-29T08:24:50.729Z,19.0
2022-08-29T08:26:50.769Z,19.1
2022-08-29T08:28:50.858Z,19.1
2022-08-29T08:30:51.053Z,19.2
2022-08-29T08:32:55.463Z,19.2
2022-08-29T08:34:54.763Z,19.2
2022-08-29T08:36:50.962Z,19.3
2022-08-29T08:38:50.888Z,19.4
2022-08-29T08:40:50.857Z,19.4
2022-08-29T08:42:50.251Z,19.4
2022-08-29T08:44:50.552Z,19.4
2022-08-29T08:46:50.892Z,19.4
2022-08-29T08:48:50.792Z,19.6
2022-08-29T08:50:55.377Z,19.6
2022-08-29T08:52:50.460Z,19.6
2022-08-29T08:54:50.786Z,19.7
2022-08-29T08:56:49.982Z,19.7
2022-08-29T08:58:50.852Z,19.7
2022-08-29T09:00:50.966Z,19.8
2022-08-29T09:02:50.394Z,19.9
2022-08-29T09:04:49.947Z,20.0
2022-08-29T09:06:50.815Z,20.0
2022-08-29T09:08:51.518Z,20.0
2022-08-29T09:10:50.194Z,20.1
2022-08-29T09:12:51.976Z,20.2
2022-08-29T09:14:50.515Z,20.3
2022-08-29T09:16:51.060Z,20.3
2022-08-29T09:18:54.964Z,20.4
2022-08-29T09:20:50.807Z,20.4
2022-08-29T09:22:50.545Z,20.5
2022-08-29T09:24:50.629Z,20.6
2022-08-29T09:26:50.939Z,20.6
2022-08-29T09:28:50.889Z,20.6
2022-08-29T09:30:50.942Z,20.7
2022-08-29T09:32:50.715Z,20.8
2022-08-29T09:35:10.508Z,20.8
2022-08-29T09:36:50.140Z,20.8
2022-08-29T09:38:50.642Z,21.0
2022-08-29T09:40:51.184Z,21.1
2022-08-29T09:42:50.600Z,21.1
2022-08-29T09:44:50.102Z,21.2
2022-08-29T09:46:50.264Z,21.2
2022-08-29T09:48:50.288Z,21.3
2022-08-29T09:50:50.124Z,21.4
2022-08-29T09:52:50.226Z,21.4
2022-08-29T09:54:50.941Z,21.4
2022-08-29T09:56:50.127Z,21.5
2022-08-29T09:58:49.996Z,21.6
2022-08-29T10:00:51.068Z,21.7
2022-08-29T10:02:51.797Z,21.7
2022-08-29T10:04:50.246Z,21.7
2022-08-29T10:06:53.255Z,21.8
2022-08-29T10:08:50.259Z,21.9
2022-08-29T10:10:50.094Z,21.9
2022-08-29T10:12:50.542Z,21.9
2022-08-29T10:14:51.048Z,22.0
2022-08-29T10:16:50.490Z,22.1
2022-08-29T10:18:50.632Z,22.2
2022-08-29T10:20:50.469Z,22.2
2022-08-29T10:22:50.712Z,22.2
2022-08-29T10:24:50.757Z,22.2
2022-08-29T10:26:49.934Z,22.3
2022-08-29T10:28:52.101Z,22.4
2022-08-29T10:30:50.614Z,22.4
2022-08-29T10:32:50.584Z,22.5
2022-08-29T10:34:49.954Z,22.5
2022-08-29T10:36:50.936Z,22.6
2022-08-29T10:38:50.925Z,22.6
2022-08-29T10:40:51.051Z,22.7
2022-08-29T10:42:49.934Z,22.7
2022-08-29T10:44:50.762Z,22.8
2022-08-29T10:46:50.304Z,22.8
2022-08-29T10:48:50.446Z,22.9
2022-08-29T10:50:50.170Z,23.0
2022-08-29T10:52:50.272Z,23.0
2022-08-29T10:54:50.810Z,23.0
2022-08-29T10:56:50.937Z,23.1
2022-08-29T10:58:50.519Z,23.2
2022-08-29T11:00:50.723Z,23.3
2022-08-29T11:02:50.652Z,23.3
2022-08-29T11:04:50.145Z,23.4
2022-08-29T11:06:50.296Z,23.4
2022-08-29T11:08:50.254Z,23.5
2022-08-29T11:10:50.651Z,23.5
2022-08-29T11:12:50.056Z,23.7
2022-08-29T11:14:50.607Z,23.8
2022-08-29T11:16:50.507Z,23.8
2022-08-29T11:18:50.721Z,23.9
2022-08-29T11:20:50.476Z,23.9
2022-08-29T11:22:50.568Z,24.0
2022-08-29T11:24:50.435Z,24.1
2022-08-29T11:26:50.648Z,24.2
2022-08-29T11:28:50.475Z,24.3
2022-08-29T11:30:50.565Z,24.3
2022-08-29T11:32:50.082Z,24.4
2022-08-29T11:34:50.356Z,24.5
2022-08-29T11:36:50.703Z,24.5
2022-08-29T11:38:50.123Z,24.6
2022-08-29T11:41:27.917Z,24.6
2022-08-29T11:42:52.661Z,24.6
2022-08-29T11:44:50.507Z,24.6
2022-08-29T11:46:58.003Z,24.7
2022-08-29T11:48:50.046Z,24.8
2022-08-29T11:50:50.481Z,24.8
2022-08-29T11:52:50.362Z,24.8
2022-08-29T11:54:50.582Z,24.8
2022-08-29T11:56:50.241Z,24.9
2022-08-29T11:58:50.121Z,24.9
2022-08-29T12:00:50.855Z,24.9
2022-08-29T12:02:50.234Z,25.0
2022-08-29T12:04:50.891Z,25.0
2022-08-29T12:06:50.146Z,25.0
2022-08-29T12:08:50.739Z,25.0
2022-08-29T12:10:50.731Z,25.0
2022-08-29T12:12:51.684Z,25.0
2022-08-29T12:14:50.153Z,25.1
2022-08-29T12:16:50.982Z,25.1
2022-08-29T12:18:50.740Z,25.2
2022-08-29T12:20:50.510Z,25.2
2022-08-29T12:22:50.027Z,25.3
2022-08-29T12:24:58.285Z,25.3
2022-08-29T12:26:50.604Z,25.4
2022-08-29T12:28:50.029Z,25.4
2022-08-29T12:30:50.279Z,25.4
2022-08-29T12:32:50.900Z,25.4
2022-08-29T12:34:50.445Z,25.4
2022-08-29T12:36:53.287Z,25.4
2022-08-29T12:38:50.640Z,25.4
2022-08-29T12:40:50.684Z,25.5
2022-08-29T12:42:52.005Z,25.5
2022-08-29T12:44:50.452Z,25.6
2022-08-29T12:46:51.320Z,25.6
2022-08-29T12:48:58.885Z,25.6
2022-08-29T12:50:50.816Z,25.6
2022-08-29T12:52:50.865Z,25.6
2022-08-29T12:54:56.923Z,25.7
2022-08-29T12:56:50.203Z,25.7
2022-08-29T12:58:50.064Z,25.7
2022-08-29T13:00:49.925Z,25.7
2022-08-29T13:02:50.263Z,25.7
2022-08-29T13:04:50.571Z,25.8
2022-08-29T13:06:52.094Z,25.8
2022-08-29T13:08:50.264Z,25.8
2022-08-29T13:10:50.157Z,25.8
2022-08-29T13:12:53.673Z,25.8
2022-08-29T13:14:50.638Z,26.0
2022-08-29T13:16:49.951Z,26.0
2022-08-29T13:19:12.075Z,26.0
2022-08-29T13:20:50.155Z,26.0
2022-08-29T13:22:50.011Z,26.0
2022-08-29T13:24:50.002Z,26.0
2022-08-29T13:27:06.559Z,26.0
2022-08-29T13:28:50.596Z,26.0
2022-08-29T13:30:50.504Z,26.2
2022-08-29T13:32:50.591Z,26.2
2022-08-29T13:34:50.350Z,26.2
2022-08-29T13:36:50.572Z,26.2
2022-08-29T13:38:50.287Z,26.3
2022-08-29T13:40:50.441Z,26.3
2022-08-29T13:42:50.582Z,26.3
2022-08-29T13:44:50.509Z,26.3
2022-08-29T13:46:50.183Z,26.3
2022-08-29T13:48:50.098Z,26.4
2022-08-29T13:50:50.160Z,26.4
2022-08-29T13:52:50.855Z,26.4
2022-08-29T13:54:50.859Z,26.5
2022-08-29T13:56:50.684Z,26.5
2022-08-29T13:58:50.589Z,26.5
2022-08-29T14:00:50.547Z,26.5
2022-08-29T14:02:51.041Z,26.5
2022-08-29T14:04:50.999Z,26.5
2022-08-29T14:06:50.310Z,26.5
2022-08-29T14:08:50.317Z,26.5
2022-08-29T14:10:50.202Z,26.5
2022-08-29T14:12:50.533Z,26.5
2022-08-29T14:14:52.433Z,26.6
2022-08-29T14:16:49.994Z,26.6
2022-08-29T14:18:49.993Z,26.6
2022-08-29T14:20:50.045Z,26.6
2022-08-29T14:22:50.160Z,26.5
2022-08-29T14:24:50.068Z,26.5
2022-08-29T14:27:02.794Z,26.5
2022-08-29T14:28:50.180Z,26.5
2022-08-29T14:30:52.974Z,26.5
2022-08-29T14:32:50.381Z,26.6
2022-08-29T14:34:53.612Z,26.6
2022-08-29T14:36:50.785Z,26.5
2022-08-29T14:38:50.733Z,26.5
2022-08-29T14:40:51.574Z,26.5
2022-08-29T14:42:50.571Z,26.5
2022-08-29T14:44:50.806Z,26.5
2022-08-29T14:46:50.334Z,26.6
2022-08-29T14:48:50.178Z,26.6
2022-08-29T14:50:50.224Z,26.6
2022-08-29T14:52:50.269Z,26.6
2022-08-29T14:54:50.088Z,26.6
2022-08-29T14:56:51.100Z,26.6
2022-08-29T14:58:50.032Z,26.6
2022-08-29T15:00:54.660Z,26.6
2022-08-29T15:02:50.157Z,26.7
2022-08-29T15:04:50.581Z,26.7
2022-08-29T15:06:50.722Z,26.7
2022-08-29T15:08:50.580Z,26.6
2022-08-29T15:10:50.505Z,26.7
2022-08-29T15:12:52.857Z,26.6
2022-08-29T15:14:50.624Z,26.6
2022-08-29T15:16:49.960Z,26.6
2022-08-29T15:20:52.111Z,26.6
2022-08-29T15:22:50.025Z,26.6
2022-08-29T15:24:50.053Z,26.6
2022-08-29T15:26:50.338Z,26.6
2022-08-29T15:28:50.200Z,26.6
2022-08-29T15:30:51.160Z,26.6
2022-08-29T15:32:50.183Z,26.7
2022-08-29T15:34:50.613Z,26.7
2022-08-29T15:36:50.896Z,26.7
2022-08-29T15:38:50.853Z,26.8
2022-08-29T15:40:50.324Z,26.8
2022-08-29T15:42:50.148Z,26.8
2022-08-29T15:44:53.169Z,26.8
2022-08-29T15:46:52.884Z,26.8
2022-08-29T15:48:50.880Z,26.7
2022-08-29T15:50:49.904Z,26.6
2022-08-29T15:52:50.738Z,26.6
2022-08-29T15:54:50.727Z,26.6
2022-08-29T15:56:50.830Z,26.5
2022-08-29T15:58:50.658Z,26.5
2022-08-29T16:00:50.822Z,26.4
2022-08-29T16:02:52.202Z,26.4
2022-08-29T16:04:57.765Z,26.3
2022-08-29T16:06:50.797Z,26.3
2022-08-29T16:08:56.765Z,26.3
2022-08-29T16:10:50.632Z,26.3
2022-08-29T16:12:50.398Z,26.3
2022-08-29T16:15:09.562Z,26.2
2022-08-29T16:16:50.432Z,26.2
2022-08-29T16:18:50.489Z,26.1
2022-08-29T16:20:57.090Z,26.0
2022-08-29T16:22:49.999Z,26.0
2022-08-29T16:24:50.850Z,26.0
2022-08-29T16:26:49.917Z,25.9
2022-08-29T16:28:50.699Z,25.8
2022-08-29T16:30:50.687Z,25.8
2022-08-29T16:32:50.712Z,25.8
2022-08-29T16:34:50.093Z,25.8
2022-08-29T16:36:50.059Z,25.8
2022-08-29T16:38:50.909Z,25.7
2022-08-29T16:40:50.652Z,25.7
2022-08-29T16:42:56.127Z,25.7
2022-08-29T16:44:50.879Z,25.7
2022-08-29T16:46:50.124Z,25.5
2022-08-29T16:48:49.978Z,25.5
2022-08-29T16:50:50.788Z,25.5
2022-08-29T16:52:50.751Z,25.5
2022-08-29T16:54:54.746Z,25.4
2022-08-29T16:56:50.803Z,25.4
2022-08-29T16:58:50.678Z,25.4
2022-08-29T17:00:50.601Z,25.4
2022-08-29T17:02:50.928Z,25.3
2022-08-29T17:04:50.415Z,25.2
2022-08-29T17:06:50.771Z,25.2
2022-08-29T17:08:52.703Z,25.2
2022-08-29T17:10:50.501Z,25.1
2022-08-29T17:12:50.368Z,25.0
2022-08-29T17:14:55.373Z,25.0
2022-08-29T17:16:50.789Z,24.9
2022-08-29T17:18:50.765Z,24.9
2022-08-29T17:20:50.889Z,24.9
2022-08-29T17:22:50.682Z,24.8
2022-08-29T17:24:50.625Z,24.8
2022-08-29T17:26:50.601Z,24.7
2022-08-29T17:28:50.329Z,24.7
2022-08-29T17:30:50.417Z,24.6
2022-08-29T17:32:50.277Z,24.6
2022-08-29T17:34:50.759Z,24.5
2022-08-29T17:36:50.821Z,24.4
2022-08-29T17:38:52.586Z,24.4
2022-08-29T17:40:52.054Z,24.4
2022-08-29T17:42:50.881Z,24.3
2022-08-29T17:44:50.821Z,24.2
2022-08-29T17:46:50.823Z,24.1
2022-08-29T17:48:50.533Z,24.1
2022-08-29T17:50:50.629Z,24.1
2022-08-29T17:52:50.342Z,24.0
2022-08-29T17:54:50.264Z,23.8
2022-08-29T17:56:50.358Z,23.8
2022-08-29T17:58:50.188Z,23.8
2022-08-29T18:00:50.399Z,23.6
2022-08-29T18:02:50.524Z,23.5
2022-08-29T18:04:50.018Z,23.4
2022-08-29T18:06:50.129Z,23.4
2022-08-29T18:08:49.998Z,23.3
2022-08-29T18:10:50.357Z,23.2
2022-08-29T18:12:50.346Z,23.1
2022-08-29T18:14:50.384Z,23.0
2022-08-29T18:16:50.761Z,23.0
2022-08-29T18:18:50.659Z,22.9
2022-08-29T18:20:50.544Z,22.8
2022-08-29T18:22:50.223Z,22.7
2022-08-29T18:24:50.371Z,22.7
2022-08-29T18:26:50.446Z,22.6
2022-08-29T18:28:52.308Z,22.4
2022-08-29T18:30:50.286Z,22.3
2022-08-29T18:32:50.104Z,22.2
2022-08-29T18:34:50.309Z,22.2
2022-08-29T18:36:50.752Z,22.2
2022-08-29T18:38:50.821Z,22.0
2022-08-29T18:40:54.398Z,21.9
2022-08-29T18:42:50.450Z,21.8
2022-08-29T18:44:50.157Z,21.8
2022-08-29T18:46:50.134Z,21.7
2022-08-29T18:48:50.271Z,21.5
2022-08-29T18:50:50.053Z,21.4
2022-08-29T18:52:50.805Z,21.4
2022-08-29T18:54:50.822Z,21.3
2022-08-29T18:56:50.907Z,21.2
2022-08-29T18:58:59.260Z,21.2
2022-08-29T19:00:50.930Z,21.0
2022-08-29T19:02:50.137Z,21.0
2022-08-29T19:04:50.606Z,20.9
2022-08-29T19:06:50.639Z,20.8
2022-08-29T19:08:50.752Z,20.8
2022-08-29T19:10:56.039Z,20.6
2022-08-29T19:12:51.068Z,20.6
2022-08-29T19:14:50.122Z,20.5
2022-08-29T19:16:50.606Z,20.4
2022-08-29T19:18:50.664Z,20.3
2022-08-29T19:20:50.770Z,20.2
2022-08-29T19:22:50.538Z,20.2
2022-08-29T19:24:50.513Z,20.2
2022-08-29T19:26:50.874Z,20.0
2022-08-29T19:28:59.530Z,20.0
2022-08-29T19:30:50.751Z,19.8
2022-08-29T19:32:50.614Z,19.8
2022-08-29T19:34:51.411Z,19.8
2022-08-29T19:36:51.854Z,19.7
2022-08-29T19:38:50.846Z,19.6
2022-08-29T19:40:50.939Z,19.5
2022-08-29T19:42:50.770Z,19.5
2022-08-29T19:44:50.670Z,19.4
2022-08-29T19:46:50.825Z,19.3
2022-08-29T19:48:53.926Z,19.2
2022-08-29T19:50:50.080Z,19.2
2022-08-29T19:52:50.816Z,19.1
2022-08-29T19:54:50.555Z,19.0
2022-08-29T19:56:50.115Z,19.0
2022-08-29T19:58:50.327Z,19.0
2022-08-29T20:00:54.331Z,19.0
2022-08-29T20:02:50.714Z,18.8
2022-08-29T20:04:51.252Z,18.8
2022-08-29T20:06:50.514Z,18.7
2022-08-29T20:08:51.899Z,18.7
2022-08-29T20:10:50.873Z,18.6
2022-08-29T20:12:50.756Z,18.6
2022-08-29T20:14:50.573Z,18.5
2022-08-29T20:16:50.911Z,18.4
2022-08-29T20:18:50.886Z,18.3
2022-08-29T20:20:50.706Z,18.3
2022-08-29T20:22:51.152Z,18.2
2022-08-29T20:24:49.997Z,18.2
2022-08-29T20:26:50.096Z,18.1
2022-08-29T20:28:50.940Z,18.1
2022-08-29T20:30:50.814Z,18.0
2022-08-29T20:32:50.627Z,18.0
2022-08-29T20:34:50.072Z,17.9
2022-08-29T20:36:50.055Z,17.9
2022-08-29T20:38:50.905Z,17.8
2022-08-29T20:40:50.889Z,17.8
2022-08-29T20:42:50.901Z,17.7
2022-08-29T20:44:50.734Z,17.6
2022-08-29T20:46:51.065Z,17.6
2022-08-29T20:48:50.279Z,17.6
2022-08-29T20:50:50.186Z,17.5
2022-08-29T20:52:50.213Z,17.5
2022-08-29T20:54:50.027Z,17.4
2022-08-29T20:56:49.929Z,17.4
2022-08-29T20:58:49.986Z,17.4
2022-08-29T21:00:51.004Z,17.3
2022-08-29T21:02:50.200Z,17.2
2022-08-29T21:04:50.702Z,17.2
2022-08-29T21:06:49.969Z,17.2
2022-08-29T21:08:50.818Z,17.1
2022-08-29T21:10:50.635Z,17.1
2022-08-29T21:12:50.813Z,17.0
2022-08-29T21:14:50.568Z,17.0
2022-08-29T21:16:50.669Z,17.0
2022-08-29T21:18:50.553Z,17.0
2022-08-29T21:20:54.897Z,16.9
2022-08-29T21:22:49.955Z,16.9
2022-08-29T21:24:49.980Z,16.8
2022-08-29T21:26:50.289Z,16.8
2022-08-29T21:28:50.080Z,16.8
2022-08-29T21:30:50.783Z,16.7
2022-08-29T21:32:50.070Z,16.7
2022-08-29T21:34:50.375Z,16.7
2022-08-29T21:36:50.474Z,16.6
2022-08-29T21:38:50.137Z,16.6
2022-08-29T21:40:52.113Z,16.6
2022-08-29T21:42:50.165Z,16.6
2022-08-29T21:44:50.921Z,16.6
2022-08-29T21:46:50.348Z,16.5
2022-08-29T21:48:57.183Z,16.5
2022-08-29T21:50:50.111Z,16.4
2022-08-29T21:52:50.287Z,16.4
2022-08-29T21:54:54.539Z,16.4
2022-08-29T21:56:50.682Z,16.4
2022-08-29T21:58:50.483Z,16.3
2022-08-29T22:00:50.331Z,16.3
2022-08-29T22:02:50.508Z,16.3
2022-08-29T22:04:50.023Z,16.3
2022-08-29T22:06:53.291Z,16.2
2022-08-29T22:08:50.505Z,16.2
2022-08-29T22:10:50.040Z,16.2
2022-08-29T22:12:50.177Z,16.2
2022-08-29T22:14:51.438Z,16.2
2022-08-29T22:16:50.890Z,16.2
2022-08-29T22:18:50.570Z,16.1
2022-08-29T22:20:56.088Z,16.1
2022-08-29T22:22:50.032Z,16.0
2022-08-29T22:24:50.753Z,16.0
2022-08-29T22:26:50.002Z,16.0
2022-08-29T22:28:50.773Z,15.9
2022-08-29T22:30:51.023Z,15.9
2022-08-29T22:32:54.795Z,15.9
2022-08-29T22:34:50.128Z,15.8
2022-08-29T22:36:50.093Z,15.8
2022-08-29T22:38:57.148Z,15.8
2022-08-29T22:40:50.194Z,15.7
2022-08-29T22:42:50.872Z,15.7
2022-08-29T22:45:04.668Z,15.7
2022-08-29T22:46:50.749Z,15.7
2022-08-29T22:48:50.640Z,15.6
2022-08-29T22:50:59.023Z,15.6
2022-08-29T22:52:49.948Z,15.6
2022-08-29T22:54:50.813Z,15.5
2022-08-29T22:56:54.954Z,15.5
2022-08-29T22:58:50.745Z,15.5
2022-08-29T23:00:50.752Z,15.4
2022-08-29T23:02:51.044Z,15.4
2022-08-29T23:04:50.674Z,15.4
2022-08-29T23:06:49.965Z,15.4
2022-08-29T23:08:50.755Z,15.4
2022-08-29T23:10:50.521Z,15.4
2022-08-29T23:12:50.512Z,15.4
2022-08-29T23:14:50.549Z,15.3
2022-08-29T23:16:50.512Z,15.3
2022-08-29T23:18:50.297Z,15.3
2022-08-29T23:20:51.850Z,15.2
2022-08-29T23:22:51.298Z,15.2
2022-08-29T23:24:59.458Z,15.2
2022-08-29T23:26:50.606Z,15.2
2022-08-29T23:28:50.466Z,15.1
2022-08-29T23:30:50.831Z,15.0
2022-08-29T23:32:50.715Z,15.0
2022-08-29T23:34:50.895Z,15.0
2022-08-29T23:36:50.224Z,15.0
2022-08-29T23:38:55.572Z,15.0
2022-08-29T23:40:50.684Z,14.9
2022-08-29T23:42:50.554Z,14.9
2022-08-29T23:44:50.478Z,14.9
2022-08-29T23:46:50.420Z,14.9
2022-08-29T23:48:50.549Z,14.9
2022-08-29T23:50:50.433Z,14.8
2022-08-29T23:52:50.307Z,14.8
2022-08-29T23:54:50.416Z,14.8
2022-08-29T23:56:50.580Z,14.7
2022-08-29T23:58:51.450Z,14.7
